Nearby METAR Reports

Aktualna pogoda na lotniskach (dane METAR)

 

EPGD - Gdansk/Rebiechow, Poland
Distance from station: ENE 27mi, 44km
Updated: Tue, 20-Apr-2021 12:00am PDT
Clear
Clear
 Wind from varies
Wind: varies 1 mph , 2 km/h
Temperature: 54°F , 12°C
Dew Point: 37°F , 3°C
Humidity: 54%
Barometer: 29.97 inHg , 1015 hPa
Summary: Clear
Visibility: greater than 7 miles , 10 km
2021/04/20 07:00 EPGD 200700Z VRB01KT CAVOK 12/03 Q1015
EPSC - Szczecin/Golenio, Poland
Distance from station: WSW 128mi, 205km
Updated: Tue, 20-Apr-2021 12:00am PDT
Clear
Clear
 Wind from NNW
Wind: NNW 5 mph , 7 km/h
Temperature: 46°F , 8°C
Wind Chill: 44°F , 7°C
Dew Point: 39°F , 4°C
Humidity: 76%
Barometer: 30 inHg , 1016 hPa
Summary: Clear
Visibility: greater than 7 miles , 10 km
2021/04/20 07:00 EPSC 200700Z 33004KT CAVOK 08/04 Q1016
 
EPPO - Poznan/Lawica, Poland
Distance from station: SSW 131mi, 210km
Updated: Tue, 20-Apr-2021 12:00am PDT
Clear
Clear
 Wind from varies
Wind: varies 2 mph , 4 km/h
Temperature: 50°F , 10°C
Dew Point: 46°F , 8°C
Humidity: 88%
Barometer: 29.97 inHg , 1015 hPa
Summary: Clear
Visibility: greater than 7 miles , 10 km
2021/04/20 07:00 EPPO 200700Z VRB02KT CAVOK 10/08 Q1015
EPLL - Lodz/Lublinek, Poland
Distance from station: SSE 184mi, 296km
Updated: Tue, 20-Apr-2021 12:00am PDT
Clear
Clear
 Wind from E
Wind: E 3 mph , 6 km/h
Temperature: 52°F , 11°C
Dew Point: 41°F , 5°C
Humidity: 67%
Barometer: 29.97 inHg , 1015 hPa
Summary: Clear
Visibility: greater than 7 miles , 10 km
2021/04/20 07:00 EPLL 200700Z 09003KT 060V140 CAVOK 11/05 Q1015
 
EPWA - Warsaw/Okecie, Poland
Distance from station: SE 191mi, 307km
Updated: Tue, 20-Apr-2021 12:00am PDT
Clear
Clear
 Wind from E
Wind: E 3 mph , 6 km/h
Temperature: 55°F , 13°C
Dew Point: 36°F , 2°C
Humidity: 47%
Barometer: 29.97 inHg , 1015 hPa
Summary: Clear
Visibility: greater than 7 miles , 10 km
2021/04/20 07:00 EPWA 200700Z 08003KT 030V120 CAVOK 13/02 Q1015 NOSIG
EPWR - Wroclaw/Strachow, Poland
Distance from station: S 219mi, 352km
Updated: Tue, 20-Apr-2021 12:00am PDT
Partly Cloudy
Partly Cloudy
 Wind from NW
Wind: NW 7 mph , 11 km/h
Temperature: 48°F , 9°C
Wind Chill: 45°F , 7°C
Dew Point: 48°F , 9°C
Humidity: 100%
Barometer: 30 inHg , 1016 hPa
Clouds: Partly Cloudy
Visibility: 5 miles , 8 km
Cloud details: Partly Cloudy 600 ft
2021/04/20 07:00 EPWR 200700Z 31006KT 8000 SCT006 09/09 Q1016

Metar display script from Saratoga-Weather.org